GMT,Max TemperatureF,Mean TemperatureF,Min TemperatureF,Max Dew PointF,MeanDew PointF,Min DewpointF,Max Humidity, Mean Humidity, Min Humidity, Max Sea Level PressureIn, Mean Sea Level PressureIn, Min Sea Level PressureIn, Max VisibilityMiles, Mean VisibilityMiles, Min VisibilityMiles, Max Wind SpeedMPH, Mean Wind SpeedMPH, Max Gust SpeedMPH,PrecipitationIn, CloudCover, Events, WindDirDegrees
2012-12-1,42,34,26,36,30,27,100,87,58,30.01,29.96,29.92,19,5,0,12,4,,0.00,5,Fog,268
2012-12-2,42,33,24,34,29,23,100,86,58,30.04,30.00,29.95,19,9,6,7,4,,0.02,7,,243
2012-12-3,50,44,37,48,39,33,100,85,66,29.89,29.72,29.62,19,7,3,16,8,,0.04,6,Rain,250
2012-12-4,45,36,28,34,32,28,100,78,50,29.65,29.62,29.59,19,8,6,16,8,,0.00,2,Fog,263
2012-12-5,39,32,26,34,28,25,100,81,54,30.02,29.78,29.59,19,7,3,16,6,,0.03,4,Rain-Snow,335
2012-12-6,42,33,24,39,30,23,93,84,61,30.08,29.89,29.44,19,9,6,18,6,,0.16,8,Rain,214
2012-12-7,43,39,35,37,32,28,87,72,48,30.00,29.61,29.42,19,7,6,23,14,37,0.04,4,Rain-Snow,314
2012-12-8,43,39,35,36,34,32,93,79,56,30.31,30.22,30.01,19,8,6,10,7,,0.00,4,,302
2012-12-9,48,44,39,39,36,30,87,73,55,30.21,30.07,30.01,19,7,6,17,11,,0.00,5,,282
2012-12-10,42,36,30,32,31,28,93,76,57,30.38,30.20,30.04,16,7,6,14,11,,0.00,3,,340
2012-12-11,35,30,24,31,29,25,100,95,74,30.45,30.39,30.33,12,4,0,8,5,,0.01,4,Fog,354
2012-12-12,30,26,23,30,26,22,100,99,90,30.30,30.10,29.89,7,2,0,5,1,,0.00,6,Fog,61
2012-12-13,33,28,24,34,28,25,100,91,74,29.86,29.68,29.53,6,5,3,9,6,,0.00,5,,74
2012-12-14,50,42,35,47,41,34,100,86,68,29.47,29.06,28.77,7,4,1,24,12,36,0.31,6,Rain,161
2012-12-15,53,48,42,45,42,39,87,80,65,29.46,29.28,29.09,19,8,6,16,11,,0.00,5,Rain,219
2012-12-16,52,44,37,41,39,36,95,84,64,29.57,29.50,29.44,18,7,4,10,5,,0.01,4,Fog-Rain,207
2012-12-17,48,44,40,41,39,37,100,82,56,29.68,29.56,29.47,19,8,6,13,8,,0.00,4,,234
2012-12-18,45,39,32,39,38,32,100,85,70,30.14,29.97,29.71,16,7,1,12,6,,0.00,5,Rain,312
2012-12-19,45,38,30,43,38,30,100,89,65,30.12,29.99,29.80,12,6,2,15,7,,0.16,7,Rain,119
2012-12-20,50,47,44,48,45,42,100,92,82,29.77,29.57,29.44,19,6,3,15,12,24,0.28,7,Rain,147
2012-12-21,50,46,42,43,42,39,100,87,64,29.96,29.82,29.62,19,8,4,12,6,,0.00,4,Fog,244
2012-12-22,55,48,42,54,48,41,100,92,88,29.92,29.65,29.53,14,6,2,14,7,,0.59,7,Rain,195
2012-12-23,55,52,48,52,46,43,88,78,67,29.73,29.63,29.50,19,8,6,17,13,28,0.00,6,,236
2012-12-24,53,50,46,50,46,43,100,87,74,29.71,29.47,29.30,8,6,3,21,9,,0.12,6,,196
2012-12-25,48,44,40,45,41,36,93,84,70,29.63,29.40,29.24,6,6,2,16,10,,0.35,4,,225
2012-12-26,50,42,35,46,40,34,93,83,61,29.74,29.63,29.50,19,8,4,22,9,,0.08,3,,230
2012-12-27,46,44,41,43,39,37,93,79,66,30.15,29.71,29.44,19,7,5,20,12,,0.08,5,Rain,262
2012-12-28,53,47,41,50,46,37,100,86,77,30.15,29.98,29.83,19,7,2,18,10,,0.12,7,Rain,208
2012-12-29,52,48,42,52,45,37,100,83,67,29.83,29.62,29.47,18,7,3,24,18,36,0.08,6,Rain,214
2012-12-30,52,46,41,44,37,32,76,69,59,29.90,29.82,29.65,19,8,6,22,16,34,0.00,4,Rain,237
2012-12-31,52,50,48,48,46,43,94,82,64,29.83,29.59,29.42,19,8,4,22,17,33,0.20,6,,225